Nearby METAR Reports

 

EDLW - Dortmund/Wickede, Germany
Distance from station: OSO 17km
Aktuell: 13/07/2020 00:20
Klar
Klar
 Wind aus ONO
Wind: ONO 6 km/h
Temperatur: 15°C
Taupunkt: 8°C
Luftfeuchte: 63%
Luftdruck: 1026 hPa
Clouds: Klar
Visibility: 10 km
2020/07/12 22:20 EDLW 122220Z AUTO 06003KT 9999 // NCD 15/08 Q1026
EDDL - Duesseldorf, Germany
Distance from station: SW 52km
Aktuell: 13/07/2020 00:50
Klar
Klar
 Wind aus NNO
Wind: NNO 6 km/h
Temperatur: 13°C
Taupunkt: 10°C
Luftfeuchte: 82%
Luftdruck: 1026 hPa
Zusammenfassung: Klar
Visibility: greater than 10 km
2020/07/12 22:50 EDDL 122250Z 02003KT CAVOK 13/10 Q1026 NOSIG
 
EDDG - Muenster/Osnabru, Germany
Distance from station: NNO 67km
Aktuell: 13/07/2020 00:50
Klar
Klar
 Wind aus varies
Wind: varies 4 km/h
Temperatur: 11°C
Taupunkt: 10°C
Luftfeuchte: 94%
Luftdruck: 1026 hPa
Zusammenfassung: Klar
Visibility: greater than 10 km
2020/07/12 22:50 EDDG 122250Z VRB02KT CAVOK 11/10 Q1026 NOSIG
EDLN - Monchengladbach, Germany
Distance from station: WSW 72km
Aktuell: 13/07/2020 00:50
Klar
Klar
 Wind aus N
Wind: N 6 km/h
Temperatur: 13°C
Taupunkt: 9°C
Luftfeuchte: 77%
Luftdruck: 1026 hPa
Clouds: Klar
Visibility: 10 km
2020/07/12 22:50 EDLN 122250Z AUTO 36003KT 9999 // NCD 13/09 Q1026
 
EDDK - Koeln/Bonn, Germany
Distance from station: SSW 79km
Aktuell: 13/07/2020 00:50
Klar
Klar
 Wind aus ONO
Wind: ONO 9 km/h
Temperatur: 14°C
Taupunkt: 8°C
Luftfeuchte: 67%
Luftdruck: 1025 hPa
Zusammenfassung: Klar
Visibility: greater than 10 km
2020/07/12 22:50 EDDK 122250Z 07005KT CAVOK 14/08 Q1025 NOSIG
EDLP - Paderborn/Lippst, Germany
Distance from station: O 85km
Aktuell: 12/07/2020 21:50
NOT Current
Klar
Klar
 Wind aus N
Wind: N 7 km/h
Temperatur: 15°C
Taupunkt: 8°C
Luftfeuchte: 63%
Luftdruck: 1027 hPa
Zusammenfassung: Klar
Visibility: greater than 10 km
2020/07/12 19:50 EDLP 121950Z 36004KT CAVOK 15/08 Q1027
 
EDLV - Niederrhein, Germany
Distance from station: W 86km
Aktuell: 12/07/2020 23:50
Klar
Klar
 Wind aus varies
Wind: varies 4 km/h
Temperatur: 16°C
Taupunkt: 9°C
Luftfeuchte: 63%
Luftdruck: 1027 hPa
Zusammenfassung: Klar
Visibility: greater than 10 km
2020/07/12 21:50 EDLV 122150Z VRB02KT CAVOK 16/09 Q1027
ETNN - Noervenich (gaf), Germany
Distance from station: SSW 97km
Aktuell: 13/07/2020 00:20
Teilweise bewölkt
Teilweise bewölkt
 Wind aus varies
Wind: varies 2 km/h
Temperatur: 13°C
Taupunkt: 8°C
Luftfeuchte: 72%
Luftdruck: 1025 hPa
Clouds: Teilweise bewölkt
Visibility: 10 km
Cloud details: Teilweise bewölkt 9754 m
2020/07/12 22:20 ETNN 122220Z VRB01KT 9999 SCT320 13/08 Q1025 BLU+